Time;durP1;ratioP1;P1;durP2;ratioP2;P2;SDS_P1;SDS_P2;PMS_P1;PMS_P2;Temp;Humidity;BMP_temperature;BMP_pressure;BME280_temperature;BME280_humidity;BME280_pressure;Samples;Min_cycle;Max_cycle;Signal;HPM_P1;HPM_P2
2024/04/08 00:00:13;;;;;;;;;;;;;;;15.92;100.00;95284.06;11410488;25;3009;-70
2024/04/08 00:05:24;;;;;;;;;;;;;;;15.91;100.00;95276.25;11406589;25;2958;-70
2024/04/08 00:10:28;;;;;;;;;;;;;;;15.80;100.00;95274.97;11401589;25;3038;-72
2024/04/08 00:15:38;;;;;;;;;;;;;;;15.65;100.00;95274.34;11408847;25;2866;-71
2024/04/08 00:20:42;;;;;;;;;;;;;;;15.61;100.00;95277.97;11402779;25;3088;-71
2024/04/08 00:25:47;;;;;;;;;;;;;;;15.43;100.00;95287.19;11390425;25;3206;-69
2024/04/08 00:30:53;;;;;;;;;;;;;;;15.33;100.00;95277.44;11394058;25;3142;-69
2024/04/08 00:35:58;;;;;;;;;;;;;;;15.42;100.00;95270.13;11384258;25;2982;-69
2024/04/08 00:41:03;;;;;;;;;;;;;;;15.39;100.00;95268.03;11395554;25;3160;-71
2024/04/08 00:46:07;;;;;;;;;;;;;;;15.31;100.00;95258.00;11405186;25;3126;-72
2024/04/08 00:51:12;;;;;;;;;;;;;;;15.29;100.00;95260.22;11387806;25;3220;-72
2024/04/08 00:56:16;;;;;;;;;;;;;;;15.24;100.00;95263.09;11391778;25;3121;-70
2024/04/08 01:01:21;;;;;;;;;;;;;;;15.20;100.00;95251.28;11400654;25;3018;-72
2024/04/08 01:06:25;;;;;;;;;;;;;;;15.18;100.00;95248.09;11391943;25;3113;-74
2024/04/08 01:11:29;;;;;;;;;;;;;;;15.05;100.00;95245.19;11393248;25;3074;-70
2024/04/08 01:16:34;;;;;;;;;;;;;;;15.06;100.00;95240.59;11389989;25;2897;-73
2024/04/08 01:21:39;;;;;;;;;;;;;;;15.11;100.00;95235.81;11381727;25;3115;-71
2024/04/08 01:26:44;;;;;;;;;;;;;;;15.11;100.00;95230.41;11381071;25;3139;-71
2024/04/08 01:31:48;;;;;;;;;;;;;;;15.06;100.00;95227.84;11383035;25;2486;-71
2024/04/08 01:36:52;;;;;;;;;;;;;;;14.95;100.00;95218.44;11396622;25;2967;-71
2024/04/08 01:41:56;;;;;;;;;;;;;;;14.98;100.00;95217.81;11391425;25;2830;-69
2024/04/08 01:47:01;;;;;;;;;;;;;;;15.04;100.00;95213.84;11396646;25;3020;-71
2024/04/08 01:52:06;;;;;;;;;;;;;;;15.04;100.00;95200.31;11400927;25;2490;-69
2024/04/08 01:57:10;;;;;;;;;;;;;;;15.07;100.00;95196.16;11387546;25;3105;-71
2024/04/08 02:02:15;;;;;;;;;;;;;;;15.09;100.00;95200.16;11395491;25;3243;-71
2024/04/08 02:07:19;;;;;;;;;;;;;;;15.05;100.00;95185.66;11384782;25;3218;-71
2024/04/08 02:12:23;;;;;;;;;;;;;;;15.07;100.00;95188.03;11386281;25;3141;-72
2024/04/08 02:17:27;;;;;;;;;;;;;;;15.03;100.00;95187.88;11407209;25;2990;-71
2024/04/08 02:22:32;;;;;;;;;;;;;;;15.01;100.00;95173.84;11396695;25;3129;-69
2024/04/08 02:27:36;;;;;;;;;;;;;;;14.88;100.00;95174.78;11396815;25;3305;-70
2024/04/08 02:32:40;;;;;;;;;;;;;;;14.84;100.00;95184.66;11396861;25;3139;-69
2024/04/08 02:37:45;;;;;;;;;;;;;;;14.82;100.00;95176.88;11391731;25;2990;-71
2024/04/08 02:42:49;;;;;;;;;;;;;;;14.83;100.00;95166.84;11399914;25;3165;-72
2024/04/08 02:47:54;;;;;;;;;;;;;;;14.87;100.00;95163.16;11398536;25;3093;-71
2024/04/08 02:52:58;;;;;;;;;;;;;;;14.87;100.00;95167.78;11395984;25;3128;-72
2024/04/08 02:58:02;;;;;;;;;;;;;;;14.84;100.00;95163.00;11397880;25;3210;-72
2024/04/08 03:03:06;;;;;;;;;;;;;;;14.87;100.00;95159.66;11402982;25;3206;-72
2024/04/08 03:08:11;;;;;;;;;;;;;;;14.82;100.00;95155.22;11406481;25;3010;-74
2024/04/08 03:13:15;;;;;;;;;;;;;;;14.77;100.00;95157.28;11392451;25;3106;-76
2024/04/08 03:18:19;;;;;;;;;;;;;;;14.72;100.00;95166.31;11397538;25;2926;-71
2024/04/08 03:23:23;;;;;;;;;;;;;;;14.74;100.00;95168.72;11389759;25;3094;-73
2024/04/08 03:28:28;;;;;;;;;;;;;;;14.70;100.00;95163.16;11397241;25;3097;-72
2024/04/08 03:33:33;;;;;;;;;;;;;;;14.67;100.00;95168.38;11406212;25;3214;-74
2024/04/08 03:38:37;;;;;;;;;;;;;;;14.64;100.00;95163.59;11391564;25;3153;-72
2024/04/08 03:43:41;;;;;;;;;;;;;;;14.58;100.00;95166.44;11406753;25;3117;-73
2024/04/08 03:48:46;;;;;;;;;;;;;;;14.60;100.00;95158.81;11395159;25;3121;-76
2024/04/08 03:53:50;;;;;;;;;;;;;;;14.65;100.00;95162.50;11394868;25;2937;-73
2024/04/08 03:58:54;;;;;;;;;;;;;;;14.70;100.00;95168.56;11402342;25;3240;-73
2024/04/08 04:03:59;;;;;;;;;;;;;;;14.73;100.00;95167.91;11397487;25;3165;-71
2024/04/08 04:09:04;;;;;;;;;;;;;;;14.75;100.00;95159.47;11389362;25;3141;-71
2024/04/08 04:14:09;;;;;;;;;;;;;;;14.75;100.00;95173.00;11378525;25;3095;-71
2024/04/08 04:19:13;;;;;;;;;;;;;;;14.86;100.00;95182.44;11386134;25;3122;-72
2024/04/08 04:24:17;;;;;;;;;;;;;;;15.15;100.00;95211.63;11392261;25;3101;-71
2024/04/08 04:29:22;;;;;;;;;;;;;;;15.13;100.00;95211.94;11388404;25;3101;-70
2024/04/08 04:34:26;;;;;;;;;;;;;;;14.91;100.00;95228.28;11401124;25;3089;-71
2024/04/08 04:39:30;;;;;;;;;;;;;;;14.72;100.00;95228.53;11381315;25;3218;-72
2024/04/08 04:44:35;;;;;;;;;;;;;;;14.63;100.00;95235.81;11397082;25;3093;-70
2024/04/08 04:49:39;;;;;;;;;;;;;;;14.46;100.00;95244.66;11399653;25;3205;-70
2024/04/08 04:54:44;;;;;;;;;;;;;;;14.38;100.00;95239.16;11407192;25;3098;-70
2024/04/08 04:59:48;;;;;;;;;;;;;;;14.27;100.00;95247.56;11387417;25;3205;-70
2024/04/08 05:04:54;;;;;;;;;;;;;;;14.20;100.00;95249.09;11411036;25;2998;-70
2024/04/08 05:09:58;;;;;;;;;;;;;;;14.10;100.00;95252.06;11390640;25;3119;-70
2024/04/08 05:15:02;;;;;;;;;;;;;;;14.00;100.00;95264.72;11386084;25;3067;-70
2024/04/08 05:20:09;;;;;;;;;;;;;;;13.95;100.00;95264.03;11392797;25;3116;-70
2024/04/08 05:25:14;;;;;;;;;;;;;;;14.05;100.00;95267.28;11397989;25;3274;-71
2024/04/08 05:30:18;;;;;;;;;;;;;;;14.45;100.00;95275.50;11391406;25;3115;-76
2024/04/08 05:35:22;;;;;;;;;;;;;;;14.92;100.00;95266.97;11394895;25;2997;-73
2024/04/08 05:40:26;;;;;;;;;;;;;;;15.35;100.00;95277.94;11383492;25;3113;-71
2024/04/08 05:45:31;;;;;;;;;;;;;;;15.55;100.00;95271.91;11394563;25;3541;-72
2024/04/08 05:50:36;;;;;;;;;;;;;;;15.66;100.00;95275.13;11384378;25;3120;-73
2024/04/08 05:55:40;;;;;;;;;;;;;;;15.76;100.00;95263.19;11389672;25;2969;-70
2024/04/08 06:00:45;;;;;;;;;;;;;;;15.94;100.00;95271.00;11402459;25;3202;-70
2024/04/08 06:05:50;;;;;;;;;;;;;;;16.28;100.00;95268.56;11395074;25;3214;-71
2024/04/08 06:11:01;;;;;;;;;;;;;;;16.45;100.00;95273.97;11403237;25;3067;-74
2024/04/08 06:16:33;;;;;;;;;;;;;;;16.86;100.00;95288.84;10890214;27;2892;-71
2024/04/08 06:21:39;;;;;;;;;;;;;;;17.08;100.00;95293.25;10897503;27;3136;-70
2024/04/08 06:26:44;;;;;;;;;;;;;;;17.39;100.00;95295.66;10896862;27;2982;-70
2024/04/08 06:31:55;;;;;;;;;;;;;;;18.15;100.00;95300.91;10896218;27;2977;-70
2024/04/08 06:37:05;;;;;;;;;;;;;;;18.90;100.00;95290.75;10895179;27;2982;-71
2024/04/08 06:42:12;;;;;;;;;;;;;;;19.69;100.00;95302.25;10857715;27;2994;-69
2024/04/08 06:47:16;;;;;;;;;;;;;;;20.27;91.66;95296.53;10877597;27;2935;-71
2024/04/08 06:52:20;;;;;;;;;;;;;;;20.76;85.44;95293.63;10877048;27;3140;-70
2024/04/08 06:57:25;;;;;;;;;;;;;;;20.86;80.47;95297.75;10879879;27;3371;-70
2024/04/08 07:02:30;;;;;;;;;;;;;;;21.37;75.98;95295.94;10878780;27;3134;-71
2024/04/08 07:07:34;;;;;;;;;;;;;;;22.00;67.30;95284.88;10878677;27;2975;-69
2024/04/08 07:12:38;;;;;;;;;;;;;;;22.13;61.50;95286.34;10877270;27;3163;-69
2024/04/08 07:17:42;;;;;;;;;;;;;;;22.15;58.63;95283.28;10848089;27;3138;-69
2024/04/08 07:22:48;;;;;;;;;;;;;;;22.48;53.50;95287.47;10880769;27;3201;-68
2024/04/08 07:27:52;;;;;;;;;;;;;;;22.61;55.11;95286.16;10878759;27;3274;-70
2024/04/08 07:32:57;;;;;;;;;;;;;;;22.54;54.52;95286.00;10851027;27;3113;-69
2024/04/08 07:38:04;;;;;;;;;;;;;;;22.31;56.32;95288.69;10841302;27;3549;-70
2024/04/08 07:43:09;;;;;;;;;;;;;;;22.65;53.96;95284.28;10874996;27;3232;-70
2024/04/08 07:48:14;;;;;;;;;;;;;;;22.90;52.25;95284.75;10875727;27;3149;-70
2024/04/08 07:53:18;;;;;;;;;;;;;;;22.95;52.82;95283.66;10878643;27;3169;-70
2024/04/08 07:58:22;;;;;;;;;;;;;;;23.43;51.56;95287.63;10880173;27;3028;-68
2024/04/08 08:03:27;;;;;;;;;;;;;;;23.53;47.34;95280.69;10875644;27;3214;-69
2024/04/08 08:08:31;;;;;;;;;;;;;;;23.42;47.79;95281.34;10879369;27;3238;-69
2024/04/08 08:13:36;;;;;;;;;;;;;;;23.61;46.05;95283.22;10878057;27;3149;-69
2024/04/08 08:18:41;;;;;;;;;;;;;;;23.55;41.47;95289.38;10873288;27;3247;-70
2024/04/08 08:23:46;;;;;;;;;;;;;;;23.88;41.68;95280.47;10874092;27;3295;-71
2024/04/08 08:28:50;;;;;;;;;;;;;;;24.51;40.82;95282.50;10875305;27;3209;-69
2024/04/08 08:33:55;;;;;;;;;;;;;;;24.54;40.72;95284.47;10876861;27;2965;-69
2024/04/08 08:38:59;;;;;;;;;;;;;;;25.31;37.68;95288.41;10874087;27;3110;-70
2024/04/08 08:44:04;;;;;;;;;;;;;;;24.96;36.23;95289.66;10886544;27;2939;-70
2024/04/08 08:49:09;;;;;;;;;;;;;;;24.58;35.26;95292.78;10884824;27;2987;-72
2024/04/08 08:54:13;;;;;;;;;;;;;;;24.38;37.62;95279.19;10878522;27;3101;-69
2024/04/08 08:59:18;;;;;;;;;;;;;;;24.82;35.82;95275.78;10845323;27;3155;-71
2024/04/08 09:04:22;;;;;;;;;;;;;;;25.14;34.52;95273.34;10873078;27;3608;-69
2024/04/08 09:09:26;;;;;;;;;;;;;;;25.13;34.57;95282.78;10875937;27;2880;-68
2024/04/08 09:14:31;;;;;;;;;;;;;;;25.20;33.96;95277.34;10874919;27;3353;-68
2024/04/08 09:19:35;;;;;;;;;;;;;;;25.16;32.94;95273.75;10852752;27;3147;-70
2024/04/08 09:24:41;;;;;;;;;;;;;;;25.37;34.58;95273.13;10877139;27;2934;-69
2024/04/08 09:29:46;;;;;;;;;;;;;;;25.32;33.35;95274.31;10878533;27;3167;-70
2024/04/08 09:34:53;;;;;;;;;;;;;;;25.63;33.46;95255.63;10876001;27;2525;-69
2024/04/08 09:40:00;;;;;;;;;;;;;;;25.38;31.19;95243.66;10873166;27;3255;-68
2024/04/08 09:45:05;;;;;;;;;;;;;;;25.27;30.52;95244.38;10872027;27;2996;-69
2024/04/08 09:50:10;;;;;;;;;;;;;;;25.53;30.30;95237.13;10858471;27;3690;-73
2024/04/08 09:55:14;;;;;;;;;;;;;;;25.98;30.35;95233.09;10882462;27;2831;-71
2024/04/08 10:00:18;;;;;;;;;;;;;;;26.09;30.43;95222.91;10876241;27;2947;-70
2024/04/08 10:05:23;;;;;;;;;;;;;;;26.57;28.51;95219.16;10884745;27;3107;-69
2024/04/08 10:10:27;;;;;;;;;;;;;;;26.61;28.47;95209.72;10879056;27;3106;-69
2024/04/08 10:15:34;;;;;;;;;;;;;;;26.37;29.10;95210.41;10878741;27;3113;-69
2024/04/08 10:20:42;;;;;;;;;;;;;;;26.36;29.11;95200.56;10877503;27;2494;-72
2024/04/08 10:25:47;;;;;;;;;;;;;;;26.73;27.67;95186.53;10871056;27;3118;-70
2024/04/08 10:30:52;;;;;;;;;;;;;;;26.82;28.31;95172.34;10874156;27;3583;-71
2024/04/08 10:35:57;;;;;;;;;;;;;;;26.73;27.87;95164.47;10878578;27;3064;-70
2024/04/08 10:41:01;;;;;;;;;;;;;;;26.92;28.07;95161.31;10883497;27;2534;-70
2024/04/08 10:46:17;;;;;;;;;;;;;;;27.39;27.58;95153.03;10885002;27;3141;-69
2024/04/08 10:51:22;;;;;;;;;;;;;;;26.85;28.09;95157.78;10884143;27;3190;-72
2024/04/08 10:56:31;;;;;;;;;;;;;;;26.80;29.19;95163.69;10858840;27;3214;-69
2024/04/08 11:01:35;;;;;;;;;;;;;;;26.88;31.92;95148.72;10885436;27;2840;-72
2024/04/08 11:06:40;;;;;;;;;;;;;;;26.54;35.07;95142.78;10885979;27;3230;-74
2024/04/08 11:11:44;;;;;;;;;;;;;;;26.50;37.71;95142.75;10883394;27;3137;-72
2024/04/08 11:16:48;;;;;;;;;;;;;;;26.32;39.98;95137.19;10877182;27;3591;-71
2024/04/08 11:21:53;;;;;;;;;;;;;;;26.42;40.71;95130.16;10886671;27;3133;-71
2024/04/08 11:26:57;;;;;;;;;;;;;;;26.71;40.73;95122.69;10884740;27;3029;-69
2024/04/08 11:32:08;;;;;;;;;;;;;;;27.05;39.55;95116.81;10883306;27;3120;-73
2024/04/08 11:37:20;;;;;;;;;;;;;;;26.87;35.78;95100.25;10875885;27;2868;-72
2024/04/08 11:42:36;;;;;;;;;;;;;;;26.89;37.75;95108.91;10874904;27;3223;-71
2024/04/08 11:47:42;;;;;;;;;;;;;;;26.80;37.73;95098.28;10879575;27;3169;-70
2024/04/08 11:52:46;;;;;;;;;;;;;;;27.16;36.39;95103.78;10873786;27;3223;-70
2024/04/08 11:57:50;;;;;;;;;;;;;;;27.20;35.84;95085.28;10873626;27;3058;-71
2024/04/08 12:02:55;;;;;;;;;;;;;;;27.25;34.59;95087.63;10878466;27;2859;-71
2024/04/08 12:08:02;;;;;;;;;;;;;;;27.30;34.74;95078.16;10885331;27;3164;-71
2024/04/08 12:13:06;;;;;;;;;;;;;;;26.85;34.62;95075.06;10846934;27;3281;-72
2024/04/08 12:18:11;;;;;;;;;;;;;;;27.67;34.26;95072.09;10873752;27;3125;-72
2024/04/08 12:23:15;;;;;;;;;;;;;;;27.44;32.25;95062.34;10877661;27;3184;-72
2024/04/08 12:28:20;;;;;;;;;;;;;;;27.58;32.88;95067.03;10877852;27;3141;-72
2024/04/08 12:33:24;;;;;;;;;;;;;;;28.08;34.08;95054.97;10876528;27;3023;-70
2024/04/08 12:38:29;;;;;;;;;;;;;;;28.01;35.28;95051.06;10876565;27;3164;-70
2024/04/08 12:43:34;;;;;;;;;;;;;;;28.01;35.35;95053.06;10875593;27;3024;-72
2024/04/08 12:48:56;;;;;;;;;;;;;;;28.42;35.72;95039.38;10870298;27;3401;-71
2024/04/08 12:54:01;;;;;;;;;;;;;;;28.71;35.29;95037.16;10874775;27;2990;-71
2024/04/08 12:59:06;;;;;;;;;;;;;;;28.65;35.60;95035.25;10878055;27;3212;-70
2024/04/08 13:04:13;;;;;;;;;;;;;;;28.51;35.67;95034.19;10873732;27;2871;-71
2024/04/08 13:09:17;;;;;;;;;;;;;;;28.48;34.88;95029.44;10867868;27;2931;-71
2024/04/08 13:14:22;;;;;;;;;;;;;;;28.36;35.03;95026.38;10875795;27;3242;-70
2024/04/08 13:19:26;;;;;;;;;;;;;;;28.43;34.93;95010.53;10884937;27;3165;-70
2024/04/08 13:24:30;;;;;;;;;;;;;;;28.55;34.01;95012.81;10881984;27;3120;-73
2024/04/08 13:29:35;;;;;;;;;;;;;;;28.75;32.76;95009.47;10849945;27;3125;-72
2024/04/08 13:34:40;;;;;;;;;;;;;;;28.87;31.82;94994.34;10874030;27;3634;-72
2024/04/08 13:39:44;;;;;;;;;;;;;;;29.06;27.24;95000.09;10879661;27;3164;-71
2024/04/08 13:44:54;;;;;;;;;;;;;;;29.17;27.07;94999.19;10872583;27;3244;-70
2024/04/08 13:49:58;;;;;;;;;;;;;;;29.07;26.94;94990.63;10871667;27;2867;-72
2024/04/08 13:55:04;;;;;;;;;;;;;;;29.03;26.95;94992.63;10873624;27;3106;-72
2024/04/08 14:00:09;;;;;;;;;;;;;;;29.12;26.46;94994.13;10879611;27;3070;-72
2024/04/08 14:05:15;;;;;;;;;;;;;;;28.98;28.11;94984.78;10875474;27;3121;-71
2024/04/08 14:10:19;;;;;;;;;;;;;;;28.80;27.69;94984.13;10867022;27;3231;-72
2024/04/08 14:15:24;;;;;;;;;;;;;;;28.78;27.66;94979.03;10889431;27;2981;-70
2024/04/08 14:20:30;;;;;;;;;;;;;;;28.74;27.32;94985.78;10889479;27;3291;-73
2024/04/08 14:25:34;;;;;;;;;;;;;;;28.43;27.84;94982.09;10881690;27;2934;-72
2024/04/08 14:30:39;;;;;;;;;;;;;;;28.43;26.97;94971.06;10883373;27;3136;-72
2024/04/08 14:35:43;;;;;;;;;;;;;;;28.91;28.90;94973.75;10878935;27;3216;-73
2024/04/08 14:40:48;;;;;;;;;;;;;;;28.49;28.23;94974.94;10885665;27;3114;-70
2024/04/08 14:45:52;;;;;;;;;;;;;;;28.82;28.14;94965.16;10881257;27;3085;-72
2024/04/08 14:50:56;;;;;;;;;;;;;;;28.73;29.26;94956.56;10887023;27;3034;-71
2024/04/08 14:56:01;;;;;;;;;;;;;;;28.44;29.35;94947.75;10880016;27;3171;-72
2024/04/08 15:01:09;;;;;;;;;;;;;;;28.50;33.52;94944.16;10885213;27;2962;-72
2024/04/08 15:06:21;;;;;;;;;;;;;;;28.41;33.02;94941.06;10882952;27;3142;-70
2024/04/08 15:11:33;;;;;;;;;;;;;;;28.40;31.70;94947.78;10880151;26;3053;-70
2024/04/08 15:16:38;;;;;;;;;;;;;;;28.44;34.10;94939.44;10881678;27;3576;-70
2024/04/08 15:21:42;;;;;;;;;;;;;;;28.10;33.41;94942.09;10879862;27;3092;-70
2024/04/08 15:26:46;;;;;;;;;;;;;;;28.06;32.70;94944.88;10883635;27;3152;-71
2024/04/08 15:31:50;;;;;;;;;;;;;;;28.09;32.86;94940.50;10882375;27;3264;-71
2024/04/08 15:36:55;;;;;;;;;;;;;;;27.95;31.49;94944.97;10877489;27;3220;-70
2024/04/08 15:41:59;;;;;;;;;;;;;;;27.80;34.48;94937.16;10879949;27;3293;-70
2024/04/08 15:47:03;;;;;;;;;;;;;;;27.51;38.36;94940.09;10857529;27;3027;-70
2024/04/08 15:52:08;;;;;;;;;;;;;;;27.53;39.48;94945.19;10885754;27;3070;-72
2024/04/08 15:57:12;;;;;;;;;;;;;;;27.27;40.72;94944.53;10884937;27;3684;-70
2024/04/08 16:02:16;;;;;;;;;;;;;;;27.06;40.71;94941.88;10886218;27;3342;-75
2024/04/08 16:07:21;;;;;;;;;;;;;;;27.03;40.42;94942.63;10883642;27;3133;-71
2024/04/08 16:12:26;;;;;;;;;;;;;;;26.83;41.19;94943.09;10884078;27;3139;-72
2024/04/08 16:17:35;;;;;;;;;;;;;;;26.69;41.62;94940.38;10863003;27;3018;-70
2024/04/08 16:22:39;;;;;;;;;;;;;;;26.59;42.06;94941.16;10884807;27;3192;-71
2024/04/08 16:28:03;;;;;;;;;;;;;;;26.40;44.29;94943.19;10881768;27;3048;-74
2024/04/08 16:33:10;;;;;;;;;;;;;;;26.26;45.31;94945.91;10890246;27;2979;-70
2024/04/08 16:38:14;;;;;;;;;;;;;;;26.12;48.35;94954.19;10891956;27;3331;-69
2024/04/08 16:43:18;;;;;;;;;;;;;;;25.83;53.49;94945.91;10884798;27;3134;-70
2024/04/08 16:48:24;;;;;;;;;;;;;;;25.61;56.07;94950.53;10887426;27;3263;-70
2024/04/08 16:53:29;;;;;;;;;;;;;;;25.45;58.31;94958.38;10881689;27;3137;-71
2024/04/08 16:58:33;;;;;;;;;;;;;;;25.25;59.00;94955.16;10880503;27;3132;-71
2024/04/08 17:03:37;;;;;;;;;;;;;;;25.10;60.97;94958.25;10879850;27;2580;-72
2024/04/08 17:08:42;;;;;;;;;;;;;;;24.92;63.79;94964.41;10850429;27;3145;-74
2024/04/08 17:13:47;;;;;;;;;;;;;;;24.72;66.53;94957.63;10881194;27;3156;-74
2024/04/08 17:18:56;;;;;;;;;;;;;;;24.51;68.44;94950.06;10886681;27;3312;-74
2024/04/08 17:24:03;;;;;;;;;;;;;;;24.36;70.16;94946.41;10880262;27;2994;-71
2024/04/08 17:29:11;;;;;;;;;;;;;;;24.16;71.88;94939.56;10880955;27;2974;-71
2024/04/08 17:34:16;;;;;;;;;;;;;;;23.96;72.61;94939.03;10866467;27;3113;-70
2024/04/08 17:39:20;;;;;;;;;;;;;;;23.76;72.44;94927.47;10881631;27;2972;-70
2024/04/08 17:44:26;;;;;;;;;;;;;;;23.56;74.46;94926.09;10872237;27;3128;-71
2024/04/08 17:49:32;;;;;;;;;;;;;;;23.36;76.31;94920.03;10885052;27;3066;-72
2024/04/08 17:54:36;;;;;;;;;;;;;;;23.28;75.54;94921.09;10853673;27;2986;-72
2024/04/08 17:59:43;;;;;;;;;;;;;;;22.98;77.93;94918.44;10850148;27;3011;-71
2024/04/08 18:04:54;;;;;;;;;;;;;;;22.79;78.83;94916.59;10878424;27;3672;-71
2024/04/08 18:10:00;;;;;;;;;;;;;;;22.69;80.17;94917.25;10883132;27;3042;-72
2024/04/08 18:15:04;;;;;;;;;;;;;;;22.54;82.50;94921.75;10882751;27;3239;-71
2024/04/08 18:20:09;;;;;;;;;;;;;;;22.46;84.13;94917.31;10880816;27;3261;-72
2024/04/08 18:25:13;;;;;;;;;;;;;;;22.36;86.16;94924.22;10877968;27;3046;-71
2024/04/08 18:30:18;;;;;;;;;;;;;;;22.18;88.55;94934.91;10848393;27;3009;-71
2024/04/08 18:35:23;;;;;;;;;;;;;;;21.91;92.28;94934.06;10887953;27;2942;-71
2024/04/08 18:40:27;;;;;;;;;;;;;;;21.79;94.75;94937.00;10880300;27;3239;-72
2024/04/08 18:45:31;;;;;;;;;;;;;;;21.67;96.69;94937.19;10883531;27;3411;-72
2024/04/08 18:50:35;;;;;;;;;;;;;;;21.61;98.54;94944.91;10882290;27;3128;-71
2024/04/08 18:55:40;;;;;;;;;;;;;;;21.58;100.00;94946.41;10884881;27;2974;-77
2024/04/08 19:00:44;;;;;;;;;;;;;;;21.34;100.00;94941.28;10857927;27;3228;-74
2024/04/08 19:05:48;;;;;;;;;;;;;;;21.29;100.00;94936.91;10874844;27;3188;-74
2024/04/08 19:10:54;;;;;;;;;;;;;;;21.27;100.00;94944.66;10870959;27;3047;-76
2024/04/08 19:15:58;;;;;;;;;;;;;;;21.07;100.00;94942.31;10874474;27;3102;-70
2024/04/08 19:21:02;;;;;;;;;;;;;;;20.83;100.00;94935.19;10876263;27;3251;-71
2024/04/08 19:26:07;;;;;;;;;;;;;;;20.71;100.00;94936.09;10874468;27;3090;-71
2024/04/08 19:31:11;;;;;;;;;;;;;;;20.56;100.00;94931.50;10854711;27;3157;-72
2024/04/08 19:36:16;;;;;;;;;;;;;;;20.45;100.00;94934.78;10875155;27;3528;-72
2024/04/08 19:41:21;;;;;;;;;;;;;;;20.28;100.00;94937.88;10868320;27;3227;-72
2024/04/08 19:46:27;;;;;;;;;;;;;;;19.94;100.00;94931.25;10873540;27;3150;-71
2024/04/08 19:51:52;;;;;;;;;;;;;;;19.76;100.00;94924.56;10864841;27;3216;-71
2024/04/08 19:56:57;;;;;;;;;;;;;;;19.63;100.00;94919.19;10861585;27;3135;-71
2024/04/08 20:02:02;;;;;;;;;;;;;;;19.48;100.00;94924.63;10865264;27;3150;-73
2024/04/08 20:07:06;;;;;;;;;;;;;;;19.37;100.00;94922.41;10861683;27;3008;-73
2024/04/08 20:12:10;;;;;;;;;;;;;;;19.23;100.00;94905.69;10860501;27;3137;-73
2024/04/08 20:17:15;;;;;;;;;;;;;;;19.11;100.00;94900.31;10863359;27;3197;-72
2024/04/08 20:22:19;;;;;;;;;;;;;;;18.98;100.00;94896.06;10862426;27;2983;-75
2024/04/08 20:27:24;;;;;;;;;;;;;;;18.82;100.00;94904.97;10860398;27;3206;-72
2024/04/08 20:32:29;;;;;;;;;;;;;;;18.73;100.00;94893.47;10856370;27;3275;-71
2024/04/08 20:37:33;;;;;;;;;;;;;;;18.67;100.00;94886.69;10864523;27;3225;-70
2024/04/08 20:42:45;;;;;;;;;;;;;;;18.51;100.00;94891.22;10863367;27;3237;-71
2024/04/08 20:48:10;;;;;;;;;;;;;;;18.43;100.00;94884.00;10874900;27;3147;-71
2024/04/08 20:53:15;;;;;;;;;;;;;;;18.31;100.00;94884.81;10859502;27;3004;-70
2024/04/08 20:58:22;;;;;;;;;;;;;;;18.25;100.00;94887.00;10872853;27;3135;-70
2024/04/08 21:03:26;;;;;;;;;;;;;;;18.10;100.00;94885.78;10888007;26;2563;-73
2024/04/08 21:08:31;;;;;;;;;;;;;;;18.01;100.00;94876.19;10889077;26;3255;-76
2024/04/08 21:13:35;;;;;;;;;;;;;;;17.95;100.00;94872.91;10870855;27;3657;-76
2024/04/08 21:18:40;;;;;;;;;;;;;;;17.91;100.00;94869.28;10860880;27;2654;-71
2024/04/08 21:23:44;;;;;;;;;;;;;;;18.03;100.00;94869.25;10863178;27;3331;-71
2024/04/08 21:28:49;;;;;;;;;;;;;;;18.00;100.00;94871.84;10867344;27;2567;-71
2024/04/08 21:33:54;;;;;;;;;;;;;;;17.92;100.00;94859.19;10861694;27;3043;-71
2024/04/08 21:38:58;;;;;;;;;;;;;;;17.93;100.00;94863.50;10860233;27;2876;-73
2024/04/08 21:44:03;;;;;;;;;;;;;;;17.99;100.00;94851.25;10870594;27;3119;-72
2024/04/08 21:49:08;;;;;;;;;;;;;;;17.93;100.00;94852.59;10858828;27;3143;-72
2024/04/08 21:54:14;;;;;;;;;;;;;;;17.78;98.31;94835.88;10868854;27;3163;-72
2024/04/08 21:59:19;;;;;;;;;;;;;;;17.84;95.35;94836.44;10867409;27;3111;-71
2024/04/08 22:04:23;;;;;;;;;;;;;;;17.79;89.18;94832.00;10862547;27;3527;-71
2024/04/08 22:09:28;;;;;;;;;;;;;;;17.75;90.34;94833.84;10895224;26;3135;-72
2024/04/08 22:14:39;;;;;;;;;;;;;;;17.68;83.20;94836.28;10862067;27;3281;-70
2024/04/08 22:19:44;;;;;;;;;;;;;;;17.47;89.69;94833.72;10873366;27;2952;-71
2024/04/08 22:24:48;;;;;;;;;;;;;;;17.49;82.03;94825.22;10849043;27;2853;-71
2024/04/08 22:29:53;;;;;;;;;;;;;;;17.55;82.53;94821.94;10859577;27;3142;-72
2024/04/08 22:34:59;;;;;;;;;;;;;;;17.51;82.71;94812.09;10874051;27;3085;-71
2024/04/08 22:40:04;;;;;;;;;;;;;;;17.38;79.24;94807.81;10868625;27;3254;-70
2024/04/08 22:45:09;;;;;;;;;;;;;;;17.26;77.18;94806.66;10871633;27;3361;-72
2024/04/08 22:50:14;;;;;;;;;;;;;;;17.21;79.58;94812.31;10859391;27;3139;-70
2024/04/08 22:55:19;;;;;;;;;;;;;;;17.08;79.15;94813.44;10869032;27;3133;-70
2024/04/08 23:00:23;;;;;;;;;;;;;;;17.11;77.56;94812.75;10874518;27;3190;-72
2024/04/08 23:05:28;;;;;;;;;;;;;;;17.09;77.83;94806.09;10877997;27;3260;-74
2024/04/08 23:10:33;;;;;;;;;;;;;;;16.98;80.11;94800.28;10876244;27;3189;-70
2024/04/08 23:15:37;;;;;;;;;;;;;;;16.83;85.74;94795.53;10878835;27;3071;-70
2024/04/08 23:20:42;;;;;;;;;;;;;;;16.70;85.22;94787.38;10869724;27;3140;-71
2024/04/08 23:25:47;;;;;;;;;;;;;;;16.60;87.26;94782.31;10875204;27;3235;-71
2024/04/08 23:30:53;;;;;;;;;;;;;;;16.48;90.14;94780.41;10874123;27;3362;-72
2024/04/08 23:35:58;;;;;;;;;;;;;;;16.39;87.74;94774.25;10867154;27;3143;-71
2024/04/08 23:41:03;;;;;;;;;;;;;;;16.42;91.41;94776.31;10869004;27;3064;-73
2024/04/08 23:46:08;;;;;;;;;;;;;;;16.51;89.12;94768.06;10891459;26;3231;-71
2024/04/08 23:51:13;;;;;;;;;;;;;;;16.51;88.52;94765.34;10859957;27;3131;-70
2024/04/08 23:56:17;;;;;;;;;;;;;;;16.59;83.20;94748.19;10857509;27;3064;-70
